Time;durP1;ratioP1;P1;durP2;ratioP2;P2;SDS_P1;SDS_P2;PMS_P1;PMS_P2;Temp;Humidity;BMP_temperature;BMP_pressure;BME280_temperature;BME280_humidity;BME280_pressure;Samples;Min_cycle;Max_cycle;Signal;HPM_P1;HPM_P2
2023/05/27 00:00:04;;;;;;;;;0.00;0.00;;;;;20.22;41.93;69129.31;6354057;22;44977;-85
2023/05/27 00:02:29;;;;;;;;;1.00;1.00;;;;;20.84;41.87;69210.13;6353700;22;45008;-85
2023/05/27 00:04:55;;;;;;;;;0.67;0.67;;;;;20.83;41.58;69181.44;6353786;22;44960;-85
2023/05/27 00:07:20;;;;;;;;;2.00;1.00;;;;;20.70;41.67;69193.44;6353456;22;44890;-85
2023/05/27 00:09:46;;;;;;;;;0.00;0.00;;;;;20.72;41.78;69154.91;6354156;22;45032;-85
2023/05/27 00:12:11;;;;;;;;;0.33;0.33;;;;;20.20;41.78;69137.69;6353541;22;45292;-85
2023/05/27 00:14:36;;;;;;;;;1.00;1.00;;;;;20.21;41.30;69083.09;6353816;22;44863;-84
2023/05/27 00:17:05;;;;;;;;;0.67;0.67;;;;;19.97;41.55;69111.47;6353471;22;44814;-84
2023/05/27 00:19:30;;;;;;;;;2.00;2.00;;;;;20.34;41.35;69143.03;6353865;22;45233;-84
2023/05/27 00:21:57;;;;;;;;;0.67;0.67;;;;;20.69;41.70;69170.13;6353187;22;45142;-84
2023/05/27 00:24:23;;;;;;;;;1.00;1.00;;;;;20.44;41.24;69115.25;6353341;22;44926;-84
2023/05/27 00:26:48;;;;;;;;;1.67;0.00;;;;;20.24;41.51;69112.91;6353061;22;44890;-85
2023/05/27 00:29:16;;;;;;;;;0.33;0.33;;;;;20.03;41.34;69083.13;6354270;22;44876;-84
2023/05/27 00:31:41;;;;;;;;;0.67;0.33;;;;;20.59;41.71;69164.19;6353233;22;45501;-84
2023/05/27 00:34:06;;;;;;;;;1.00;1.00;;;;;20.58;41.74;69142.09;6353185;22;44986;-85
2023/05/27 00:36:31;;;;;;;;;2.00;1.00;;;;;20.58;41.69;69142.09;6352879;22;45000;-85
2023/05/27 00:38:57;;;;;;;;;0.33;0.33;;;;;20.47;41.77;69163.91;6353792;22;44860;-85
2023/05/27 00:41:23;;;;;;;;;1.00;1.00;;;;;20.19;41.81;69144.56;6353094;22;45114;-84
2023/05/27 00:43:48;;;;;;;;;3.00;1.00;;;;;20.52;41.52;69193.44;6353521;22;44855;-85
2023/05/27 00:46:14;;;;;;;;;1.00;1.00;;;;;20.48;41.46;69151.66;6353618;22;44812;-85
2023/05/27 00:48:40;;;;;;;;;1.00;0.67;;;;;20.40;41.80;69126.59;6353993;22;45022;-85
2023/05/27 00:51:05;;;;;;;;;1.00;1.00;;;;;20.43;41.48;69161.81;6325532;22;46893;-85
2023/05/27 00:53:39;;;;;;;;;1.00;1.00;;;;;20.27;41.75;69108.41;6353241;22;44896;-84
2023/05/27 00:56:05;;;;;;;;;1.00;1.00;;;;;20.38;41.56;69116.16;6353667;22;44874;-84
2023/05/27 00:58:31;;;;;;;;;1.00;1.00;;;;;20.22;41.86;69126.63;6326249;22;45080;-85
2023/05/27 05:01:39;;;;;;;;;1.00;1.00;;;;;18.64;42.76;68889.66;6325671;22;44865;-81
2023/05/27 05:04:13;;;;;;;;;1.00;1.00;;;;;18.54;42.45;68881.03;6386171;22;44767;-83
2023/05/27 05:06:39;;;;;;;;;1.00;0.00;;;;;18.62;42.46;68916.75;6357857;22;44909;-83
2023/05/27 05:09:05;;;;;;;;;0.00;0.00;;;;;18.62;42.49;68868.53;6385496;22;45006;-83
2023/05/27 05:11:31;;;;;;;;;1.00;1.00;;;;;18.63;42.63;68885.19;6384725;22;44920;-84
2023/05/27 05:13:56;;;;;;;;;2.00;0.00;;;;;18.64;43.01;68899.78;6386482;22;44909;-83
2023/05/27 05:16:21;;;;;;;;;0.33;0.33;;;;;18.63;42.62;68906.63;6385894;22;44831;-84
2023/05/27 05:18:47;;;;;;;;;2.00;0.00;;;;;18.64;42.55;68867.63;6386203;22;44866;-83
2023/05/27 05:21:12;;;;;;;;;0.33;0.33;;;;;18.64;43.09;68878.94;6385739;22;50060;-83
2023/05/27 05:23:39;;;;;;;;;0.00;0.00;;;;;18.65;42.45;68925.66;6385763;22;52782;-83
2023/05/27 05:26:06;;;;;;;;;1.00;1.00;;;;;18.49;42.82;68859.00;6358617;22;44822;-84
2023/05/27 05:28:31;;;;;;;;;2.00;1.00;;;;;18.67;43.08;68855.72;6386548;22;45259;-84
2023/05/27 05:30:56;;;;;;;;;1.00;0.00;;;;;18.68;42.99;68872.38;6385875;22;45078;-84
2023/05/27 05:33:21;;;;;;;;;1.00;1.00;;;;;18.56;43.19;68874.78;6386138;22;45175;-83
2023/05/27 05:35:47;;;;;;;;;0.33;0.33;;;;;18.39;42.84;68838.50;6385526;22;51265;-83
2023/05/27 05:38:15;;;;;;;;;0.00;0.00;;;;;18.62;42.83;68865.25;6386240;22;45188;-83
2023/05/27 05:40:40;;;;;;;;;0.33;0.33;;;;;18.50;42.90;68865.56;6384870;22;46211;-83
2023/05/27 05:43:05;;;;;;;;;2.00;0.00;;;;;18.73;43.09;68897.06;6384629;22;44897;-83
2023/05/27 05:45:31;;;;;;;;;0.33;0.33;;;;;18.75;43.25;68899.44;6355742;22;47661;-84
2023/05/27 05:47:57;;;;;;;;;1.00;1.00;;;;;18.71;43.15;68849.75;6386238;22;45202;-84
2023/05/27 05:50:22;;;;;;;;;1.67;1.00;;;;;18.73;43.49;68889.03;6385018;22;45312;-83
2023/05/27 05:52:47;;;;;;;;;1.00;0.00;;;;;18.73;43.21;68856.88;6386430;22;45011;-83
2023/05/27 05:55:13;;;;;;;;;1.00;1.00;;;;;18.68;43.25;68897.09;6385352;22;47357;-83
2023/05/27 05:57:38;;;;;;;;;2.00;1.00;;;;;18.60;42.95;68863.47;6385323;22;45042;-84
2023/05/27 06:00:05;;;;;;;;;0.00;0.00;;;;;18.82;43.44;68848.25;6385534;22;49865;-83
2023/05/27 06:02:30;;;;;;;;;0.00;0.00;;;;;18.64;43.27;68849.47;6385281;22;44750;-83
2023/05/27 06:04:55;;;;;;;;;1.00;1.00;;;;;18.70;43.27;68867.31;6385871;22;44787;-83
2023/05/27 06:07:21;;;;;;;;;0.67;0.67;;;;;18.87;43.26;68851.53;6386402;22;44781;-84
2023/05/27 06:09:46;;;;;;;;;0.00;0.00;;;;;18.90;43.34;68887.25;6385774;22;45094;-83
2023/05/27 06:12:11;;;;;;;;;0.00;0.00;;;;;18.70;43.42;68880.13;6384864;22;52808;-83
2023/05/27 06:14:36;;;;;;;;;0.00;0.00;;;;;18.91;43.31;68837.53;6386377;22;46567;-82
2023/05/27 06:17:02;;;;;;;;;1.00;1.00;;;;;18.92;43.70;68844.66;6358187;22;45045;-84
2023/05/27 06:19:27;;;;;;;;;1.00;1.00;;;;;18.93;43.37;68902.13;6385929;22;45508;-83
2023/05/27 06:21:52;;;;;;;;;0.00;0.00;;;;;18.95;43.34;68864.31;6385819;22;45097;-83
2023/05/27 06:24:19;;;;;;;;;1.00;1.00;;;;;18.91;43.68;68789.88;6384323;22;45001;-84
2023/05/27 06:26:44;;;;;;;;;1.33;1.00;;;;;18.71;43.36;68812.25;6386683;22;44975;-83
2023/05/27 06:29:09;;;;;;;;;0.00;0.00;;;;;18.89;43.32;68880.69;6385622;22;46026;-82
2023/05/27 06:31:35;;;;;;;;;0.33;0.00;;;;;18.84;43.33;68797.06;6385596;22;45184;-82
2023/05/27 06:34:00;;;;;;;;;0.00;0.00;;;;;18.83;43.36;68782.47;6386176;22;44869;-82
2023/05/27 06:36:26;;;;;;;;;1.00;1.00;;;;;19.03;43.75;68821.69;6386238;22;45006;-81
2023/05/27 06:38:51;;;;;;;;;1.00;1.00;;;;;19.12;43.64;68843.13;6385466;22;46502;-83
2023/05/27 06:41:17;;;;;;;;;0.33;0.33;;;;;19.05;43.75;68907.75;6385754;22;44915;-81
2023/05/27 06:43:42;;;;;;;;;1.00;1.00;;;;;19.17;43.73;68879.16;6357821;22;44889;-81
2023/05/27 06:46:08;;;;;;;;;1.00;1.00;;;;;18.93;43.57;68823.81;6386451;22;44875;-85
2023/05/27 06:48:33;;;;;;;;;1.00;1.00;;;;;19.22;43.36;68841.59;6385241;22;45660;-83
2023/05/27 06:50:59;;;;;;;;;0.00;0.00;;;;;19.10;43.58;68793.06;6385852;22;44803;-83
2023/05/27 06:53:24;;;;;;;;;1.00;1.00;;;;;19.06;43.49;68801.75;6385696;22;45180;-82
2023/05/27 06:55:49;;;;;;;;;0.33;0.33;;;;;19.12;43.95;68814.22;6386239;22;44833;-83
2023/05/27 06:58:15;;;;;;;;;1.00;1.00;;;;;19.21;43.92;68810.31;6385940;22;45378;-82
2023/05/27 07:00:41;;;;;;;;;0.00;0.00;;;;;19.31;43.71;68803.41;6384771;22;44962;-84
2023/05/27 07:03:06;;;;;;;;;1.00;1.00;;;;;18.98;43.46;68827.66;6385721;22;44790;-84
2023/05/27 07:05:31;;;;;;;;;0.67;0.67;;;;;19.26;43.99;68857.06;6386295;22;44987;-80
2023/05/27 07:07:57;;;;;;;;;0.67;0.67;;;;;19.42;43.81;68835.25;6385875;22;46542;-82
2023/05/27 07:10:22;;;;;;;;;1.00;1.00;;;;;19.30;43.80;68802.25;6385477;22;45043;-80
2023/05/27 07:12:48;;;;;;;;;1.00;1.00;;;;;19.46;44.00;68817.97;6357407;22;45159;-81
2023/05/27 07:15:13;;;;;;;;;0.33;0.33;;;;;19.47;43.60;68873.38;6386515;22;44905;-81
2023/05/27 07:17:38;;;;;;;;;1.00;1.00;;;;;19.42;43.60;68813.81;6385895;22;44869;-81
2023/05/27 07:20:04;;;;;;;;;0.33;0.33;;;;;19.51;43.76;68840.56;6386233;22;44881;-81
2023/05/27 07:22:30;;;;;;;;;0.67;0.67;;;;;19.54;44.17;68851.59;6385675;22;44790;-82
2023/05/27 07:24:55;;;;;;;;;1.00;1.00;;;;;19.36;43.95;68804.00;6355853;22;45109;-81
2023/05/27 07:27:20;;;;;;;;;0.33;0.33;;;;;19.51;43.83;68800.34;6383187;22;45447;-81
2023/05/27 07:29:46;;;;;;;;;0.00;0.00;;;;;19.49;43.88;68830.16;6356136;22;44937;-81
2023/05/27 07:32:12;;;;;;;;;1.00;1.00;;;;;19.55;43.92;68836.69;6380888;22;44962;-82
2023/05/27 07:34:37;;;;;;;;;1.00;1.00;;;;;19.08;44.30;68771.97;6384162;22;44940;-82
2023/05/27 07:37:02;;;;;;;;;0.00;0.00;;;;;19.00;43.85;68670.75;6355942;22;47154;-81
2023/05/27 07:39:28;;;;;;;;;0.00;0.00;;;;;19.59;43.93;68782.41;6385359;22;44752;-81
2023/05/27 07:41:53;;;;;;;;;2.00;0.00;;;;;19.74;44.43;68813.66;6385271;22;45474;-83
2023/05/27 07:44:18;;;;;;;;;1.00;1.00;;;;;19.78;43.96;68756.69;6384878;22;44881;-82
2023/05/27 07:46:44;;;;;;;;;0.33;0.33;;;;;19.75;44.02;68768.63;6384341;22;46379;-85
2023/05/27 07:49:10;;;;;;;;;0.33;0.33;;;;;19.58;44.51;68767.81;6384948;22;44916;-84
2023/05/27 07:51:36;;;;;;;;;1.00;1.00;;;;;19.88;44.02;68834.44;6384621;22;45056;-84
2023/05/27 07:54:01;;;;;;;;;2.00;2.00;;;;;19.67;43.98;68754.34;6383523;22;45026;-84
2023/05/27 07:56:29;;;;;;;;;0.67;0.67;;;;;19.95;44.34;68789.09;6383962;22;45049;-83
2023/05/27 07:58:54;;;;;;;;;0.00;0.00;;;;;19.78;44.15;68764.75;6384313;22;44913;-83
2023/05/27 08:01:20;;;;;;;;;1.00;1.00;;;;;19.70;44.17;68797.59;6384846;22;44849;-83
2023/05/27 08:03:48;;;;;;;;;1.33;0.33;;;;;19.61;44.04;68696.28;6384882;22;45038;-84
2023/05/27 08:06:13;;;;;;;;;0.00;0.00;;;;;20.07;44.55;68746.38;6383432;22;45583;-83
2023/05/27 08:08:39;;;;;;;;;0.67;0.67;;;;;20.08;44.42;68718.00;6384017;22;44884;-83
2023/05/27 08:11:04;;;;;;;;;0.67;0.67;;;;;19.90;44.18;68775.69;6384126;22;44899;-82
2023/05/27 08:13:30;;;;;;;;;0.00;0.00;;;;;19.97;44.29;68740.44;6384589;22;45027;-83
2023/05/27 08:15:56;;;;;;;;;3.00;1.00;;;;;20.23;44.49;68746.53;6384392;22;45311;-83
2023/05/27 08:18:22;;;;;;;;;0.00;0.00;;;;;20.22;44.08;68753.97;6383965;22;45125;-84
2023/05/27 08:20:49;;;;;;;;;0.67;0.67;;;;;20.30;44.68;68751.53;6382990;22;44847;-85
2023/05/27 08:23:18;;;;;;;;;0.67;0.67;;;;;20.36;44.61;68724.31;6382349;22;44955;-83
2023/05/27 08:25:43;;;;;;;;;1.00;1.00;;;;;20.39;44.29;68735.97;6383763;22;45405;-83
2023/05/27 08:28:08;;;;;;;;;0.33;0.33;;;;;20.05;44.28;68690.31;6383652;22;45612;-85
2023/05/27 08:30:34;;;;;;;;;1.00;1.00;;;;;20.32;44.10;68702.88;6384321;22;44887;-84
2023/05/27 08:32:59;;;;;;;;;0.00;0.00;;;;;20.20;44.78;68735.50;6384601;22;45121;-85
2023/05/27 08:35:24;;;;;;;;;1.00;1.00;;;;;20.59;44.73;68753.13;6383588;22;45292;-82
2023/05/27 08:37:50;;;;;;;;;1.00;1.00;;;;;20.63;44.27;68685.31;6384235;22;44892;-83
2023/05/27 08:40:17;;;;;;;;;0.00;0.00;;;;;20.45;44.50;68669.94;6357240;22;44829;-82
2023/05/27 08:42:42;;;;;;;;;1.67;1.67;;;;;20.48;44.48;68686.91;6385118;22;44815;-84
2023/05/27 08:45:09;;;;;;;;;0.00;0.00;;;;;20.58;44.21;68639.69;6383853;22;45294;-82
2023/05/27 08:47:35;;;;;;;;;1.67;1.33;;;;;20.76;44.10;68683.97;6385170;22;44934;-83
2023/05/27 08:50:01;;;;;;;;;0.33;0.33;;;;;20.87;44.72;68648.63;6385891;22;44891;-82
2023/05/27 08:52:29;;;;;;;;;1.00;1.00;;;;;20.83;44.67;68596.09;6386453;22;45243;-82
2023/05/27 08:54:57;;;;;;;;;0.00;0.00;;;;;20.98;44.56;68658.38;6385263;22;46191;-84
2023/05/27 08:57:28;;;;;;;;;1.33;1.33;;;;;20.71;44.82;68557.16;6385038;22;44941;-87
2023/05/27 08:59:54;;;;;;;;;1.00;1.00;;;;;19.56;44.58;68518.69;6374151;22;45305;-76
2023/05/27 09:02:21;;;;;;;;;0.67;0.67;;;;;19.66;44.65;68479.53;6368448;22;45366;-76
2023/05/27 09:04:47;;;;;;;;;0.33;0.33;;;;;21.65;44.10;68515.81;6366162;22;45321;-77
2023/05/27 09:07:12;;;;;;;;;4.00;1.33;;;;;22.05;44.36;68435.28;6365674;22;45697;-76
2023/05/27 09:09:40;;;;;;;;;1.00;1.00;;;;;22.93;43.47;68310.19;6367106;22;45682;-80
2023/05/27 09:12:08;;;;;;;;;1.00;1.00;;;;;23.70;43.27;68160.25;6367486;22;45688;-82
2023/05/27 09:14:34;;;;;;;;;3.00;1.67;;;;;25.04;42.41;67984.50;6366834;22;46250;-81
2023/05/27 09:17:06;;;;;;;;;1.33;1.33;;;;;26.11;41.72;68019.97;6366963;22;45686;-80
2023/05/27 09:19:32;;;;;;;;;1.00;1.00;;;;;26.99;41.32;68086.75;6340880;22;45376;-81
2023/05/27 09:21:57;;;;;;;;;1.33;1.00;;;;;27.73;40.37;68358.94;6368759;22;45876;-81
2023/05/27 09:24:26;;;;;;;;;1.67;1.67;;;;;28.53;39.50;68899.91;6367488;22;45571;-81
2023/05/27 09:26:52;;;;;;;;;3.00;1.00;;;;;29.23;38.68;69386.09;6367928;22;45374;-81
2023/05/27 09:29:27;;;;;;;;;2.00;1.00;;;;;29.83;37.99;69780.09;6339023;22;45538;-81
2023/05/27 09:31:55;;;;;;;;;1.00;1.00;;;;;30.43;37.28;70164.41;6367261;22;45572;-81
2023/05/27 09:34:21;;;;;;;;;1.00;1.00;;;;;30.96;36.58;70524.03;6365528;22;45972;-81
2023/05/27 09:36:49;;;;;;;;;1.33;1.33;;;;;31.43;35.67;71040.97;6367155;22;47406;-81
2023/05/27 09:39:17;;;;;;;;;1.00;1.00;;;;;31.64;35.60;71492.59;6366276;22;45405;-81
2023/05/27 09:41:42;;;;;;;;;1.00;1.00;;;;;32.32;35.14;71878.38;6367762;22;45547;-82
2023/05/27 09:44:08;;;;;;;;;2.00;2.00;;;;;32.75;34.20;72201.22;6338474;22;46012;-82
2023/05/27 09:46:35;;;;;;;;;1.00;1.00;;;;;33.16;33.51;72491.84;6368344;22;45329;-82
2023/05/27 09:49:04;;;;;;;;;2.33;0.33;;;;;33.44;33.46;72953.28;6366653;22;45431;-82
2023/05/27 09:51:32;;;;;;;;;3.00;2.67;;;;;33.72;32.87;73214.75;6366891;22;45653;-82
2023/05/27 09:53:58;;;;;;;;;1.67;1.67;;;;;34.25;32.45;73482.91;6366598;22;45737;-80
2023/05/27 09:56:28;;;;;;;;;1.00;1.00;;;;;34.57;32.81;73736.16;6337835;22;45381;-82
2023/05/27 09:58:55;;;;;;;;;1.67;1.67;;;;;34.87;32.31;73954.72;6368140;22;45343;-81
2023/05/27 10:01:25;;;;;;;;;1.00;1.00;;;;;35.17;31.74;74046.22;6367892;22;45447;-80
2023/05/27 10:03:51;;;;;;;;;2.00;2.00;;;;;35.46;31.11;74233.56;6366448;22;47006;-81
2023/05/27 10:06:17;;;;;;;;;2.00;1.67;;;;;35.72;30.57;74172.03;6339250;22;45801;-81
2023/05/27 10:08:43;;;;;;;;;2.33;2.33;;;;;35.68;30.61;74321.94;6339364;22;45420;-80
2023/05/27 10:11:11;;;;;;;;;1.00;1.00;;;;;36.02;30.27;74462.16;6368373;22;45480;-77
2023/05/27 10:13:37;;;;;;;;;1.00;1.00;;;;;36.34;29.83;74339.25;6367885;22;47121;-79
2023/05/27 10:16:03;;;;;;;;;1.67;1.67;;;;;36.38;29.66;74427.03;6367345;22;45296;-79
2023/05/27 10:18:29;;;;;;;;;10.00;9.33;;;;;36.58;29.35;74495.16;6339483;22;45618;-79
2023/05/27 10:20:57;;;;;;;;;2.67;2.00;;;;;36.93;29.01;74346.16;6340694;22;45494;-79
2023/05/27 10:23:27;;;;;;;;;2.00;2.00;;;;;37.11;29.14;74317.88;6339149;22;47287;-79
2023/05/27 10:26:05;;;;;;;;;2.00;2.00;;;;;37.28;28.50;74347.59;6368206;22;45308;-79
2023/05/27 10:28:35;;;;;;;;;0.33;0.33;;;;;37.47;28.86;74210.66;6340240;22;45551;-79
2023/05/27 10:31:08;;;;;;;;;1.00;1.00;;;;;37.65;28.27;74229.28;6368414;22;45340;-81
2023/05/27 10:33:46;;;;;;;;;2.00;1.00;;;;;37.52;27.74;73943.41;6339000;22;45395;-80
2023/05/27 10:36:14;;;;;;;;;1.33;1.33;;;;;37.85;27.95;74107.31;6339243;22;45460;-80
2023/05/27 10:38:55;;;;;;;;;1.33;1.33;;;;;37.80;27.57;73756.78;6339627;22;45317;-83
2023/05/27 10:41:22;;;;;;;;;0.00;0.00;;;;;38.20;27.45;73609.19;6339108;22;45405;-78
2023/05/27 10:43:56;;;;;;;;;4.00;2.00;;;;;38.19;26.60;73178.72;6367360;22;47110;-80
2023/05/27 10:46:21;;;;;;;;;2.00;2.00;;;;;38.37;27.02;73076.53;6367834;22;45475;-79
2023/05/27 10:48:46;;;;;;;;;1.33;1.33;;;;;38.43;26.64;73012.06;6368366;22;45349;-78
2023/05/27 10:51:12;;;;;;;;;2.00;2.00;;;;;38.49;26.72;72911.00;6368379;22;45459;-78
2023/05/27 10:53:37;;;;;;;;;1.00;1.00;;;;;38.54;26.64;72911.00;6368013;22;46202;-77
2023/05/27 10:56:04;;;;;;;;;3.00;1.00;;;;;38.62;26.61;72876.63;6337778;22;45338;-77
2023/05/27 10:58:33;;;;;;;;;1.33;0.33;;;;;38.48;26.03;72297.88;6367178;22;45313;-79
2023/05/27 11:01:06;;;;;;;;;4.00;3.00;;;;;38.44;25.74;72208.41;6367151;22;45475;-79
2023/05/27 11:03:32;;;;;;;;;2.00;1.00;;;;;38.48;25.96;72127.00;6366136;22;46331;-79
2023/05/27 11:05:58;;;;;;;;;1.00;1.00;;;;;38.54;26.06;72205.63;6366317;22;45556;-80
2023/05/27 11:08:24;;;;;;;;;0.00;0.00;;;;;38.59;25.94;72012.59;6366565;22;45851;-82
2023/05/27 11:10:49;;;;;;;;;1.00;1.00;;;;;38.32;25.17;71593.75;6361523;22;45545;-83
2023/05/27 11:13:15;;;;;;;;;2.67;2.67;;;;;38.56;24.99;71658.25;6366093;22;46986;-82
2023/05/27 11:15:41;;;;;;;;;2.00;2.00;;;;;38.66;25.17;71462.38;6337417;22;45423;-78
2023/05/27 11:18:08;;;;;;;;;1.67;1.67;;;;;38.67;25.52;71574.22;6365678;22;45704;-79
2023/05/27 11:20:37;;;;;;;;;0.00;0.00;;;;;38.55;25.38;71548.59;6364884;22;45312;-79
2023/05/27 11:23:03;;;;;;;;;0.67;0.67;;;;;38.67;25.49;71526.59;6364856;22;46158;-80
2023/05/27 11:25:29;;;;;;;;;1.00;1.00;;;;;38.65;25.30;71386.47;6364207;22;45373;-80
2023/05/27 11:27:54;;;;;;;;;2.00;2.00;;;;;38.57;24.89;71031.13;6364751;22;45344;-78
2023/05/27 11:30:24;;;;;;;;;0.00;0.00;;;;;38.53;25.26;71206.63;6364892;22;45376;-78
2023/05/27 11:32:50;;;;;;;;;1.33;1.33;;;;;38.43;24.87;71106.66;6363263;22;46161;-79
2023/05/27 11:35:17;;;;;;;;;2.33;1.00;;;;;38.31;25.31;71016.97;6365128;22;45683;-79
2023/05/27 11:37:47;;;;;;;;;2.00;2.00;;;;;38.17;25.66;71084.22;6336743;22;45444;-80
2023/05/27 11:40:13;;;;;;;;;2.00;2.00;;;;;37.78;25.22;70941.09;6364822;22;45534;-79
2023/05/27 11:42:43;;;;;;;;;0.00;0.00;;;;;37.68;25.32;70926.91;6364246;22;47230;-80
2023/05/27 11:45:15;;;;;;;;;1.00;1.00;;;;;37.55;25.08;70809.69;6366626;22;45524;-80
2023/05/27 11:47:44;;;;;;;;;2.00;1.00;;;;;37.09;25.94;70851.53;6365636;22;45585;-81
2023/05/27 11:50:10;;;;;;;;;0.33;0.33;;;;;36.87;25.58;70718.69;6365326;22;45530;-80
2023/05/27 11:52:56;;;;;;;;;0.33;0.33;;;;;36.29;25.66;70652.97;6365111;22;46376;-81
2023/05/27 11:55:24;;;;;;;;;1.33;1.33;;;;;36.04;26.38;70737.06;6337544;22;45722;-78
2023/05/27 11:57:50;;;;;;;;;2.00;1.00;;;;;35.67;26.42;70693.78;6337426;22;45398;-78
2023/05/27 12:00:17;;;;;;;;;2.00;2.00;;;;;35.32;26.68;70597.25;6364888;22;45340;-78
2023/05/27 12:02:43;;;;;;;;;1.00;1.00;;;;;34.96;27.04;70566.22;6363766;22;46984;-78
2023/05/27 12:05:09;;;;;;;;;1.25;1.25;;;;;34.64;26.72;70566.88;6364592;22;45663;-78
2023/05/27 12:07:35;;;;;;;;;2.33;2.33;;;;;34.35;27.19;70615.63;6338145;22;45428;-77
2023/05/27 12:10:01;;;;;;;;;1.67;1.67;;;;;34.08;27.91;70613.34;6366574;22;45447;-78
2023/05/27 12:12:26;;;;;;;;;2.00;1.67;;;;;33.71;27.72;70578.88;6365980;22;47277;-78
2023/05/27 12:14:52;;;;;;;;;2.33;2.00;;;;;33.54;28.22;70558.41;6366806;22;45345;-78
2023/05/27 12:17:17;;;;;;;;;1.33;1.33;;;;;33.23;28.46;70568.97;6366794;22;45763;-78
2023/05/27 12:19:42;;;;;;;;;1.67;1.00;;;;;33.15;28.68;70612.03;6339226;22;45472;-78
2023/05/27 12:22:08;;;;;;;;;2.00;1.00;;;;;32.91;29.08;70575.50;6338404;22;48623;-79
2023/05/27 12:24:34;;;;;;;;;2.00;1.00;;;;;32.83;28.42;70587.22;6337725;22;45247;-79
2023/05/27 12:27:00;;;;;;;;;1.00;1.00;;;;;32.55;29.17;70664.91;6366526;22;45682;-78
2023/05/27 12:29:26;;;;;;;;;0.67;0.67;;;;;32.54;29.34;70641.16;6338609;22;45577;-78
2023/05/27 12:31:51;;;;;;;;;1.00;1.00;;;;;32.35;29.17;70572.91;6338549;22;45372;-78
2023/05/27 12:34:17;;;;;;;;;2.00;2.00;;;;;32.30;29.48;70572.38;6366422;22;45290;-79
2023/05/27 12:36:42;;;;;;;;;1.00;1.00;;;;;32.19;29.44;70676.84;6336482;22;45357;-78
2023/05/27 12:39:07;;;;;;;;;1.00;1.00;;;;;32.10;29.40;70622.19;6367217;22;45419;-78
2023/05/27 12:41:32;;;;;;;;;1.67;1.67;;;;;31.99;29.53;70628.72;6366163;22;45928;-78
2023/05/27 12:43:59;;;;;;;;;1.00;1.00;;;;;31.85;29.33;70634.31;6338587;22;45365;-78
2023/05/27 12:46:24;;;;;;;;;2.00;2.00;;;;;31.70;29.49;70588.88;6365817;22;45337;-78
2023/05/27 12:48:50;;;;;;;;;1.00;1.00;;;;;31.67;30.16;70604.41;6312615;22;45393;-81
2023/05/27 12:51:15;;;;;;;;;1.00;1.00;;;;;31.58;30.01;70599.03;6361753;22;45505;-80
2023/05/27 12:53:40;;;;;;;;;2.00;2.00;;;;;31.49;30.16;70663.25;6337752;22;45384;-79
2023/05/27 12:56:06;;;;;;;;;2.00;2.00;;;;;31.25;30.12;70632.13;6366927;22;45380;-80
2023/05/27 12:58:32;;;;;;;;;2.33;2.33;;;;;30.99;30.06;70516.69;6367631;22;45633;-80
2023/05/27 13:00:57;;;;;;;;;1.00;1.00;;;;;31.23;30.21;70574.47;6366550;22;45660;-80
2023/05/27 13:03:22;;;;;;;;;1.33;1.33;;;;;30.96;30.59;70569.88;6367563;22;45337;-80
2023/05/27 13:05:48;;;;;;;;;2.00;2.00;;;;;31.09;30.08;70659.94;6339409;22;45590;-79
2023/05/27 13:08:13;;;;;;;;;2.00;2.00;;;;;31.01;30.57;70549.16;6366981;22;45409;-79
2023/05/27 13:10:39;;;;;;;;;3.00;3.00;;;;;30.99;30.67;70636.31;6365846;22;47170;-77
2023/05/27 13:13:04;;;;;;;;;2.00;2.00;;;;;30.91;30.61;70627.28;6366785;22;45297;-78
2023/05/27 13:15:30;;;;;;;;;1.00;1.00;;;;;30.66;30.62;70652.94;6338027;22;45352;-79
2023/05/27 13:17:56;;;;;;;;;2.67;1.00;;;;;30.74;30.88;70614.94;6366156;22;45291;-77
2023/05/27 13:20:23;;;;;;;;;1.67;1.67;;;;;30.64;30.86;70600.75;6366483;22;47046;-81
2023/05/27 13:22:49;;;;;;;;;1.00;1.00;;;;;30.56;31.05;70632.09;6366999;22;45425;-79
2023/05/27 13:25:15;;;;;;;;;3.00;1.00;;;;;30.57;31.05;70630.53;6366673;22;45319;-79
2023/05/27 13:27:44;;;;;;;;;1.00;1.00;;;;;30.37;31.48;70639.78;6339320;22;45775;-79
2023/05/27 13:30:10;;;;;;;;;3.00;2.00;;;;;30.49;31.45;70618.78;6366389;22;46316;-79
2023/05/27 13:32:36;;;;;;;;;2.00;2.00;;;;;30.13;31.86;70608.66;6367243;22;45366;-79
2023/05/27 13:35:02;;;;;;;;;3.00;2.00;;;;;30.24;31.66;70712.00;6369058;22;45371;-79
2023/05/27 13:37:28;;;;;;;;;2.00;2.00;;;;;30.35;31.66;70615.53;6369250;22;45439;-79
2023/05/27 13:39:53;;;;;;;;;1.33;1.33;;;;;30.23;31.96;70596.19;6363388;22;45365;-79
2023/05/27 13:42:19;;;;;;;;;1.67;1.67;;;;;30.08;32.25;70557.44;6367085;22;45400;-79
2023/05/27 13:44:44;;;;;;;;;1.33;1.33;;;;;30.16;32.42;70651.09;6367995;22;45337;-79
2023/05/27 13:47:10;;;;;;;;;1.33;1.33;;;;;29.87;32.46;70643.97;6339907;22;45507;-78
2023/05/27 13:49:36;;;;;;;;;1.33;1.33;;;;;29.91;32.51;70618.19;6367433;22;47006;-79
2023/05/27 13:52:01;;;;;;;;;1.33;1.33;;;;;29.93;32.54;70697.00;6367587;22;45421;-79
2023/05/27 13:54:27;;;;;;;;;2.00;2.00;;;;;29.67;32.88;70655.88;6339311;22;45554;-79
2023/05/27 13:56:53;;;;;;;;;1.00;1.00;;;;;29.79;32.73;70677.97;6368380;22;45715;-84
2023/05/27 13:59:18;;;;;;;;;2.00;2.00;;;;;29.73;32.81;70689.78;6367751;22;45624;-84
2023/05/27 14:01:44;;;;;;;;;3.67;2.00;;;;;29.63;33.23;70683.75;6367965;22;45652;-84
2023/05/27 14:04:10;;;;;;;;;1.67;1.67;;;;;29.63;33.27;70689.19;6339881;22;45361;-84
2023/05/27 14:06:36;;;;;;;;;1.00;1.00;;;;;29.58;33.32;70636.81;6340614;22;45338;-84
2023/05/27 14:09:01;;;;;;;;;1.00;1.00;;;;;29.53;33.28;70685.91;6366811;22;46785;-85
2023/05/27 14:11:27;;;;;;;;;1.67;1.67;;;;;29.49;33.04;70675.00;6367722;22;45344;-85
2023/05/27 14:13:54;;;;;;;;;1.00;1.00;;;;;29.34;33.81;70690.81;6368154;22;45341;-85
2023/05/27 14:16:21;;;;;;;;;2.67;1.33;;;;;29.29;33.70;70725.66;6367750;22;45503;-85
2023/05/27 14:18:46;;;;;;;;;1.00;1.00;;;;;29.31;33.82;70746.53;6368047;22;45373;-86
2023/05/27 14:21:12;;;;;;;;;1.00;1.00;;;;;29.09;34.07;70693.88;6368150;22;45401;-85
2023/05/27 14:23:37;;;;;;;;;2.00;2.00;;;;;29.13;33.91;70734.16;6367505;22;45387;-85
2023/05/27 14:26:03;;;;;;;;;3.33;1.33;;;;;29.14;34.26;70694.47;6368675;22;45362;-85
2023/05/27 14:28:28;;;;;;;;;4.00;2.33;;;;;29.10;34.33;70661.78;6366854;22;47257;-84
2023/05/27 14:30:53;;;;;;;;;3.00;2.00;;;;;28.87;34.37;70706.00;6367789;22;45353;-85
2023/05/27 14:33:19;;;;;;;;;1.00;1.00;;;;;28.98;34.74;70661.50;6340061;22;45273;-85
2023/05/27 14:35:44;;;;;;;;;2.00;2.00;;;;;28.89;34.89;70696.91;6368377;22;45603;-84
2023/05/27 14:38:11;;;;;;;;;1.33;1.33;;;;;28.71;34.65;70735.66;6367320;22;47101;-85
2023/05/27 14:40:36;;;;;;;;;2.67;2.00;;;;;28.84;35.02;70721.44;6367213;22;45337;-86
2023/05/27 14:43:02;;;;;;;;;1.00;1.00;;;;;28.60;35.29;70778.00;6367228;22;45485;-85
2023/05/27 14:45:27;;;;;;;;;1.67;1.67;;;;;28.59;35.13;70700.56;6367359;22;45310;-85
2023/05/27 14:47:54;;;;;;;;;1.00;1.00;;;;;28.66;35.16;70740.50;6339488;22;46508;-85
2023/05/27 14:50:21;;;;;;;;;2.00;2.00;;;;;28.68;35.32;70751.09;6367023;22;45422;-86
2023/05/27 14:52:48;;;;;;;;;3.00;2.00;;;;;28.49;35.72;70676.97;6339214;22;45394;-87
2023/05/27 14:55:13;;;;;;;;;1.00;1.00;;;;;28.38;35.79;70683.91;6367685;22;45319;-87
2023/05/27 14:57:38;;;;;;;;;1.00;1.00;;;;;28.47;35.77;70724.16;6312768;22;45436;-87
2023/05/27 15:00:08;;;;;;;;;1.33;1.33;;;;;28.47;35.65;70762.28;6312528;22;45431;-87
2023/05/27 15:02:34;;;;;;;;;1.00;1.00;;;;;28.47;36.04;70742.59;6367391;22;45373;-87
2023/05/27 15:05:00;;;;;;;;;1.00;1.00;;;;;28.44;36.16;70709.00;6367832;22;45391;-87
2023/05/27 15:07:25;;;;;;;;;3.00;3.00;;;;;28.26;36.12;70744.97;6367015;22;46232;-86
2023/05/27 15:09:50;;;;;;;;;2.67;1.67;;;;;28.18;35.92;70706.56;6338356;22;45801;-85
2023/05/27 15:12:16;;;;;;;;;3.33;2.00;;;;;28.35;35.92;70671.50;6339422;22;45515;-85
2023/05/27 15:14:41;;;;;;;;;2.00;2.00;;;;;28.24;36.05;70769.75;6368679;22;45670;-85
2023/05/27 15:17:10;;;;;;;;;2.33;2.33;;;;;28.33;36.10;70680.59;6312556;22;47272;-85
2023/05/27 15:19:36;;;;;;;;;2.00;2.00;;;;;28.31;36.18;70713.56;6367141;22;45298;-86
2023/05/27 15:22:03;;;;;;;;;2.33;2.33;;;;;28.25;36.35;70664.88;6339260;22;45461;-86
2023/05/27 15:24:29;;;;;;;;;3.00;1.33;;;;;28.29;36.42;70770.38;6339316;22;45485;-86
2023/05/27 15:26:54;;;;;;;;;1.00;1.00;;;;;28.25;36.59;70755.25;6367208;22;46263;-86
2023/05/27 15:29:21;;;;;;;;;2.00;2.00;;;;;28.13;36.63;70768.53;6367031;22;45384;-86